Time;durP1;ratioP1;P1;durP2;ratioP2;P2;SDS_P1;SDS_P2;PMS_P1;PMS_P2;Temp;Humidity;BMP_temperature;BMP_pressure;BME280_temperature;BME280_humidity;BME280_pressure;Samples;Min_cycle;Max_cycle;Signal;HPM_P1;HPM_P2
2022/05/03 00:00:21;;;;;;;3.88;2.00;;;;;;;;;;5014286;28;20079;-37
2022/05/03 00:02:46;;;;;;;2.45;1.88;;;;;;;;;;5014269;28;20057;-37
2022/05/03 00:05:29;;;;;;;4.25;2.40;;;;;;;;;;5012744;28;20030;-37
2022/05/03 00:07:59;;;;;;;2.95;2.25;;;;;;;;;;5014023;28;20083;-37
2022/05/03 00:10:30;;;;;;;4.65;2.00;;;;;;;;;;5013805;28;20037;-37
2022/05/03 00:12:57;;;;;;;5.57;2.10;;;;;;;;;;5013833;28;20026;-37
2022/05/03 00:15:23;;;;;;;2.63;2.22;;;;;;;;;;5012491;28;20555;-37
2022/05/03 00:17:50;;;;;;;3.20;1.90;;;;;;;;;;5014051;28;20032;-37
2022/05/03 00:20:16;;;;;;;6.43;2.40;;;;;;;;;;5013710;28;20473;-37
2022/05/03 00:22:42;;;;;;;2.58;2.08;;;;;;;;;;5013631;28;20140;-37
2022/05/03 00:25:08;;;;;;;2.53;2.03;;;;;;;;;;5013617;28;20026;-37
2022/05/03 00:27:34;;;;;;;3.70;2.65;;;;;;;;;;5013443;28;20519;-37
2022/05/03 00:29:59;;;;;;;3.38;2.38;;;;;;;;;;5013624;28;20391;-37
2022/05/03 00:32:28;;;;;;;3.50;2.40;;;;;;;;;;5012743;28;20037;-37
2022/05/03 00:34:53;;;;;;;2.17;1.65;;;;;;;;;;5013671;28;20391;-37
2022/05/03 00:37:19;;;;;;;3.58;2.45;;;;;;;;;;5013417;28;20116;-36
2022/05/03 00:39:45;;;;;;;5.07;1.80;;;;;;;;;;5013362;28;20022;-37
2022/05/03 00:42:20;;;;;;;2.65;2.20;;;;;;;;;;5013655;28;20030;-37
2022/05/03 00:44:55;;;;;;;2.00;1.83;;;;;;;;;;5013325;28;20079;-37
2022/05/03 00:47:40;;;;;;;3.28;1.83;;;;;;;;;;5013398;28;20037;-37
2022/05/03 00:50:07;;;;;;;4.05;1.80;;;;;;;;;;5013203;28;20497;-37
2022/05/03 00:52:36;;;;;;;2.55;2.00;;;;;;;;;;5013300;28;20029;-37
2022/05/03 00:55:10;;;;;;;2.53;2.25;;;;;;;;;;5012980;28;20056;-37
2022/05/03 00:57:40;;;;;;;7.35;2.08;;;;;;;;;;5012949;28;20026;-37
2022/05/03 01:00:07;;;;;;;2.08;1.88;;;;;;;;;;5013028;28;20484;-37
2022/05/03 01:02:48;;;;;;;2.95;2.00;;;;;;;;;;5013066;28;20092;-37
2022/05/03 01:05:19;;;;;;;2.30;1.83;;;;;;;;;;5013019;28;20049;-37
2022/05/03 01:07:48;;;;;;;3.30;2.28;;;;;;;;;;5012787;28;20494;-37
2022/05/03 01:10:13;;;;;;;4.07;2.17;;;;;;;;;;5013104;28;20022;-37
2022/05/03 01:12:42;;;;;;;2.42;2.00;;;;;;;;;;5012690;28;20030;-36
2022/05/03 01:15:08;;;;;;;2.95;2.53;;;;;;;;;;5012912;28;20034;-36
2022/05/03 01:17:44;;;;;;;2.08;1.67;;;;;;;;;;5012558;28;20126;-37
2022/05/03 01:20:11;;;;;;;3.00;2.20;;;;;;;;;;5011376;28;20030;-37
2022/05/03 01:22:56;;;;;;;3.45;2.30;;;;;;;;;;5012721;28;20022;-37
2022/05/03 01:25:36;;;;;;;2.55;1.83;;;;;;;;;;5011252;28;20030;-37
2022/05/03 01:28:08;;;;;;;1.98;1.75;;;;;;;;;;5012504;28;20054;-37
2022/05/03 01:30:33;;;;;;;5.13;2.15;;;;;;;;;;5012516;28;20042;-37
2022/05/03 01:33:06;;;;;;;2.08;1.65;;;;;;;;;;5012496;28;20103;-39
2022/05/03 01:35:36;;;;;;;3.10;2.17;;;;;;;;;;5012186;28;20489;-37
2022/05/03 01:38:07;;;;;;;1.90;1.70;;;;;;;;;;5012579;28;20104;-37
2022/05/03 01:40:45;;;;;;;2.85;2.20;;;;;;;;;;5012443;28;20056;-37
2022/05/03 01:43:13;;;;;;;1.98;1.77;;;;;;;;;;5011425;28;20034;-36
2022/05/03 01:45:38;;;;;;;2.10;1.90;;;;;;;;;;5012651;28;20496;-37
2022/05/03 01:48:06;;;;;;;3.47;1.60;;;;;;;;;;5012143;28;20030;-38
2022/05/03 01:50:42;;;;;;;3.20;2.13;;;;;;;;;;5012272;28;20353;-37
2022/05/03 01:53:19;;;;;;;2.42;1.85;;;;;;;;;;5012404;28;20049;-37
2022/05/03 01:55:44;;;;;;;5.38;2.60;;;;;;;;;;5011964;28;20052;-37
2022/05/03 01:58:21;;;;;;;1.83;1.52;;;;;;;;;;5012011;28;20022;-37
2022/05/03 02:01:04;;;;;;;2.78;1.92;;;;;;;;;;5011892;28;20057;-37
2022/05/03 02:03:34;;;;;;;2.08;1.80;;;;;;;;;;5011997;28;20499;-37
2022/05/03 02:05:59;;;;;;;2.65;1.95;;;;;;;;;;5012055;28;20495;-37
2022/05/03 02:08:30;;;;;;;3.03;1.65;;;;;;;;;;5011810;28;20064;-37
2022/05/03 02:11:14;;;;;;;3.38;2.55;;;;;;;;;;5011747;28;20029;-37
2022/05/03 02:16:45;;;;;;;3.00;2.17;;;;;;;;;;5011879;28;20045;-37
2022/05/03 02:19:16;;;;;;;3.90;2.05;;;;;;;;;;5011949;28;20100;-37
2022/05/03 02:21:49;;;;;;;1.75;1.65;;;;;;;;;;5011697;28;20117;-37
2022/05/03 02:24:14;;;;;;;;;;;;;;;;;;5012410;28;20036;-37
2022/05/03 02:26:40;;;;;;;1.98;1.60;;;;;;;;;;5011463;28;19921;-37
2022/05/03 02:29:15;;;;;;;2.92;1.90;;;;;;;;;;5011746;28;20034;-37
2022/05/03 02:32:02;;;;;;;2.63;2.42;;;;;;;;;;5011558;28;20033;-37
2022/05/03 02:34:45;;;;;;;1.92;1.55;;;;;;;;;;5011426;28;20470;-37
2022/05/03 02:37:31;;;;;;;2.28;2.08;;;;;;;;;;5010434;28;20030;-37
2022/05/03 02:40:00;;;;;;;1.98;1.42;;;;;;;;;;5011294;28;20088;-37
2022/05/03 02:42:26;;;;;;;2.17;1.98;;;;;;;;;;5011413;28;20029;-37
2022/05/03 02:44:59;;;;;;;4.65;2.45;;;;;;;;;;5011783;28;20044;-36
2022/05/03 02:47:24;;;;;;;;;;;;;;;;;;5011861;28;20438;-37
2022/05/03 02:49:50;;;;;;;4.30;2.33;;;;;;;;;;5010330;28;20007;-36
2022/05/03 02:52:27;;;;;;;4.50;2.30;;;;;;;;;;5011727;28;20030;-37
2022/05/03 02:55:02;;;;;;;6.28;2.10;;;;;;;;;;5012513;28;20045;-37
2022/05/03 02:57:45;;;;;;;4.43;2.47;;;;;;;;;;5015279;28;20124;-37
2022/05/03 03:03:16;;;;;;;5.78;1.90;;;;;;;;;;5015134;28;19917;-37
2022/05/03 03:05:43;;;;;;;2.28;1.80;;;;;;;;;;5015413;28;20121;-37
2022/05/03 03:08:11;;;;;;;2.33;2.00;;;;;;;;;;5015357;28;20022;-37
2022/05/03 03:10:48;;;;;;;3.10;2.17;;;;;;;;;;5014911;28;20034;-37
2022/05/03 03:13:14;;;;;;;3.33;2.03;;;;;;;;;;5014894;28;20433;-37
2022/05/03 03:15:40;;;;;;;5.18;2.58;;;;;;;;;;5014920;28;20030;-36
2022/05/03 03:18:12;;;;;;;3.15;2.25;;;;;;;;;;5015160;28;20317;-37
2022/05/03 03:20:42;;;;;;;2.38;1.95;;;;;;;;;;5014796;28;20128;-37
2022/05/03 03:23:08;;;;;;;2.97;2.55;;;;;;;;;;5014719;28;20041;-37
2022/05/03 03:25:34;;;;;;;2.20;2.00;;;;;;;;;;5014746;28;20437;-37
2022/05/03 03:28:01;;;;;;;2.65;1.63;;;;;;;;;;5014605;28;20042;-37
2022/05/03 03:30:27;;;;;;;2.60;1.83;;;;;;;;;;5014550;28;20539;-37
2022/05/03 03:32:53;;;;;;;1.85;1.67;;;;;;;;;;5014733;28;20066;-37
2022/05/03 03:35:19;;;;;;;2.47;1.90;;;;;;;;;;5014560;28;20040;-37
2022/05/03 03:37:46;;;;;;;2.22;1.92;;;;;;;;;;5014690;28;20025;-37
2022/05/03 03:40:13;;;;;;;4.00;2.15;;;;;;;;;;5014783;28;20176;-37
2022/05/03 03:42:39;;;;;;;2.95;2.15;;;;;;;;;;5014664;28;20049;-37
2022/05/03 03:45:07;;;;;;;3.65;2.25;;;;;;;;;;5014367;28;20429;-36
2022/05/03 03:47:33;;;;;;;4.57;2.05;;;;;;;;;;5014307;28;20517;-36
2022/05/03 03:49:59;;;;;;;2.53;2.20;;;;;;;;;;5014378;28;20182;-37
2022/05/03 03:52:25;;;;;;;3.17;1.98;;;;;;;;;;5014161;28;20014;-37
2022/05/03 03:54:51;;;;;;;4.55;2.05;;;;;;;;;;5014133;28;20500;-37
2022/05/03 03:57:20;;;;;;;1.88;1.65;;;;;;;;;;5014255;28;20014;-38
2022/05/03 03:59:45;;;;;;;2.80;1.90;;;;;;;;;;5014050;28;20116;-37
2022/05/03 04:02:11;;;;;;;2.50;2.30;;;;;;;;;;5012849;28;20548;-37
2022/05/03 04:04:36;;;;;;;1.67;1.52;;;;;;;;;;5014318;28;20033;-36
2022/05/03 04:07:02;;;;;;;3.97;2.08;;;;;;;;;;5013225;28;20026;-37
2022/05/03 04:09:28;;;;;;;2.42;2.13;;;;;;;;;;5014200;28;20041;-36
2022/05/03 04:11:54;;;;;;;2.10;1.85;;;;;;;;;;5013917;28;20417;-36
2022/05/03 04:14:20;;;;;;;2.15;1.95;;;;;;;;;;5014142;28;20053;-36
2022/05/03 04:16:47;;;;;;;2.90;1.92;;;;;;;;;;5013717;28;20041;-37
2022/05/03 04:19:12;;;;;;;7.13;2.50;;;;;;;;;;5013807;28;20037;-37
2022/05/03 04:21:38;;;;;;;2.17;1.92;;;;;;;;;;5013641;28;20030;-37
2022/05/03 04:24:04;;;;;;;8.80;2.17;;;;;;;;;;5013983;28;20125;-36
2022/05/03 04:26:29;;;;;;;3.08;2.13;;;;;;;;;;5013395;28;20053;-37
2022/05/03 04:28:55;;;;;;;3.72;2.33;;;;;;;;;;5013923;28;20087;-37
2022/05/03 04:31:23;;;;;;;2.17;1.77;;;;;;;;;;5013523;28;20370;-36
2022/05/03 04:33:49;;;;;;;4.93;1.98;;;;;;;;;;5013674;28;20129;-37
2022/05/03 04:36:14;;;;;;;3.70;1.92;;;;;;;;;;5013470;28;20097;-36
2022/05/03 04:38:39;;;;;;;3.65;2.25;;;;;;;;;;5013653;28;20037;-37
2022/05/03 04:41:05;;;;;;;4.05;2.72;;;;;;;;;;5013351;28;20028;-37
2022/05/03 04:43:30;;;;;;;5.25;2.42;;;;;;;;;;5013235;28;20404;-36
2022/05/03 04:45:56;;;;;;;2.75;2.25;;;;;;;;;;5013321;28;20020;-37
2022/05/03 04:48:21;;;;;;;3.20;2.10;;;;;;;;;;5013197;28;20030;-36
2022/05/03 04:50:47;;;;;;;3.95;2.13;;;;;;;;;;5013019;28;20480;-37
2022/05/03 04:53:13;;;;;;;2.55;1.98;;;;;;;;;;5011910;28;20377;-37
2022/05/03 04:55:39;;;;;;;3.60;2.28;;;;;;;;;;5012871;28;20087;-37
2022/05/03 04:58:04;;;;;;;3.40;2.55;;;;;;;;;;5013338;28;20026;-38
2022/05/03 05:00:29;;;;;;;3.20;2.03;;;;;;;;;;5013194;28;20018;-36
2022/05/03 05:02:55;;;;;;;3.17;2.10;;;;;;;;;;5028126;28;20025;-37
2022/05/03 05:05:20;;;;;;;2.25;1.85;;;;;;;;;;5013285;28;20499;-36
2022/05/03 05:07:46;;;;;;;6.28;2.00;;;;;;;;;;5012906;28;20030;-37
2022/05/03 05:10:23;;;;;;;2.90;2.25;;;;;;;;;;5012764;28;20361;-37
2022/05/03 05:12:49;;;;;;;2.55;2.28;;;;;;;;;;5013083;28;20034;-37
2022/05/03 05:15:14;;;;;;;3.15;2.05;;;;;;;;;;5012664;28;20536;-37
2022/05/03 05:17:40;;;;;;;5.32;2.03;;;;;;;;;;5012445;28;20025;-37
2022/05/03 05:20:05;;;;;;;4.00;2.75;;;;;;;;;;5012949;28;20145;-37
2022/05/03 05:22:32;;;;;;;4.32;2.25;;;;;;;;;;5012537;28;20508;-36
2022/05/03 05:24:57;;;;;;;4.28;2.42;;;;;;;;;;5012492;28;20058;-37
2022/05/03 05:27:23;;;;;;;4.07;2.08;;;;;;;;;;5012359;28;20041;-36
2022/05/03 05:29:48;;;;;;;2.60;2.05;;;;;;;;;;5012731;28;20030;-36
2022/05/03 05:32:14;;;;;;;2.55;2.03;;;;;;;;;;5012460;28;20049;-38
2022/05/03 05:34:39;;;;;;;4.90;2.05;;;;;;;;;;5012287;28;20034;-37
2022/05/03 05:37:04;;;;;;;2.70;1.95;;;;;;;;;;5012424;28;20026;-36
2022/05/03 05:39:31;;;;;;;6.43;2.15;;;;;;;;;;5012514;28;20404;-36
2022/05/03 05:41:57;;;;;;;2.30;2.10;;;;;;;;;;5012269;28;20092;-37
2022/05/03 05:44:22;;;;;;;2.63;1.92;;;;;;;;;;5012270;28;20022;-36
2022/05/03 05:46:48;;;;;;;2.03;1.70;;;;;;;;;;5012085;28;20041;-36
2022/05/03 05:49:13;;;;;;;4.00;2.03;;;;;;;;;;5012147;28;20018;-36
2022/05/03 05:51:38;;;;;;;2.85;2.33;;;;;;;;;;5010729;28;20037;-37
2022/05/03 05:54:04;;;;;;;3.63;2.30;;;;;;;;;;5012043;28;20030;-37
2022/05/03 05:56:29;;;;;;;2.95;2.53;;;;;;;;;;5012052;28;20076;-37
2022/05/03 05:58:55;;;;;;;3.38;2.13;;;;;;;;;;5012080;28;20060;-37
2022/05/03 06:01:25;;;;;;;2.55;1.77;;;;;;;;;;5011962;28;20028;-37
2022/05/03 06:03:50;;;;;;;2.92;2.05;;;;;;;;;;5012186;28;20028;-36
2022/05/03 06:06:17;;;;;;;8.52;2.15;;;;;;;;;;5011982;28;20030;-36
2022/05/03 06:08:43;;;;;;;3.13;2.60;;;;;;;;;;5011777;28;20057;-36
2022/05/03 06:11:09;;;;;;;3.13;2.25;;;;;;;;;;5027044;28;20111;-37
2022/05/03 06:13:36;;;;;;;2.83;1.80;;;;;;;;;;5011661;28;20075;-37
2022/05/03 06:16:11;;;;;;;3.70;2.08;;;;;;;;;;5011730;28;20492;-36
2022/05/03 06:18:37;;;;;;;2.80;2.05;;;;;;;;;;5011755;28;20022;-37
2022/05/03 06:21:09;;;;;;;4.47;2.72;;;;;;;;;;5011634;28;20026;-37
2022/05/03 06:23:38;;;;;;;4.18;1.75;;;;;;;;;;5011972;28;20037;-37
2022/05/03 06:26:06;;;;;;;7.07;2.47;;;;;;;;;;5011547;28;20021;-37
2022/05/03 06:28:33;;;;;;;3.22;2.33;;;;;;;;;;5010351;28;20050;-36
2022/05/03 06:30:59;;;;;;;1.95;1.75;;;;;;;;;;5011372;28;20033;-36
2022/05/03 06:33:25;;;;;;;3.60;1.98;;;;;;;;;;5011566;28;20030;-37
2022/05/03 06:35:51;;;;;;;2.58;1.83;;;;;;;;;;5011786;28;20034;-37
2022/05/03 06:38:16;;;;;;;3.97;2.08;;;;;;;;;;5011613;28;20029;-36
2022/05/03 06:40:42;;;;;;;3.75;2.28;;;;;;;;;;5011423;28;20022;-36
2022/05/03 06:43:09;;;;;;;4.50;1.92;;;;;;;;;;5011507;28;20504;-37
2022/05/03 06:45:35;;;;;;;2.97;2.20;;;;;;;;;;5011423;28;20469;-37
2022/05/03 06:48:01;;;;;;;2.17;1.83;;;;;;;;;;5011416;28;20030;-37
2022/05/03 06:50:29;;;;;;;2.42;2.13;;;;;;;;;;5011568;28;20026;-37
2022/05/03 06:52:58;;;;;;;2.92;2.25;;;;;;;;;;5011747;28;20034;-37
2022/05/03 06:55:24;;;;;;;2.45;1.90;;;;;;;;;;5011579;28;20034;-37
2022/05/03 06:57:54;;;;;;;3.05;1.90;;;;;;;;;;5026373;28;20377;-37
2022/05/03 07:00:19;;;;;;;5.43;1.90;;;;;;;;;;5011676;28;20113;-37
2022/05/03 07:02:48;;;;;;;2.13;1.80;;;;;;;;;;5011317;28;20101;-36
2022/05/03 07:05:14;;;;;;;2.78;1.75;;;;;;;;;;5011276;28;20112;-36
2022/05/03 07:07:40;;;;;;;3.83;2.58;;;;;;;;;;5026407;28;20455;-36
2022/05/03 07:10:06;;;;;;;2.55;2.28;;;;;;;;;;5009904;28;20022;-36
2022/05/03 07:12:32;;;;;;;2.00;1.80;;;;;;;;;;5011435;28;20609;-36
2022/05/03 07:14:59;;;;;;;2.05;1.88;;;;;;;;;;5011502;28;20379;-37
2022/05/03 07:22:53;;;;;;;2.15;1.77;;;;;;;;;;5011310;28;20096;-36
2022/05/03 07:25:19;;;;;;;4.90;2.47;;;;;;;;;;5011096;28;20508;-37
2022/05/03 07:27:46;;;;;;;2.78;2.10;;;;;;;;;;5010927;28;20121;-37
2022/05/03 07:30:14;;;;;;;4.78;2.30;;;;;;;;;;5011102;28;20034;-37
2022/05/03 07:32:40;;;;;;;2.00;1.70;;;;;;;;;;5010956;28;20037;-37
2022/05/03 07:35:06;;;;;;;5.00;2.60;;;;;;;;;;5011051;28;20034;-36
2022/05/03 07:37:31;;;;;;;5.63;2.13;;;;;;;;;;5010946;28;20045;-36
2022/05/03 07:39:57;;;;;;;4.90;2.10;;;;;;;;;;5010920;28;20025;-36
2022/05/03 07:42:22;;;;;;;2.08;1.75;;;;;;;;;;5012828;28;20053;-37
2022/05/03 07:44:47;;;;;;;2.22;1.98;;;;;;;;;;5014484;28;20044;-37
2022/05/03 07:47:13;;;;;;;6.75;1.50;;;;;;;;;;5014629;28;20029;-36
2022/05/03 07:49:38;;;;;;;3.83;2.03;;;;;;;;;;5014305;28;20022;-36
2022/05/03 07:52:06;;;;;;;4.03;2.15;;;;;;;;;;5014326;28;20057;-36
2022/05/03 07:54:32;;;;;;;1.77;1.63;;;;;;;;;;5014113;28;20044;-37
2022/05/03 07:56:58;;;;;;;3.90;2.08;;;;;;;;;;5014226;28;20109;-36
2022/05/03 07:59:25;;;;;;;9.30;2.08;;;;;;;;;;5014263;28;20022;-36
2022/05/03 08:01:51;;;;;;;4.07;2.53;;;;;;;;;;5014243;28;20033;-37
2022/05/03 08:04:17;;;;;;;5.55;2.10;;;;;;;;;;5013959;28;20053;-37
2022/05/03 08:06:42;;;;;;;1.60;1.50;;;;;;;;;;5014040;28;20076;-37
2022/05/03 08:09:08;;;;;;;3.13;2.42;;;;;;;;;;5013961;28;20026;-36
2022/05/03 08:11:34;;;;;;;3.53;2.45;;;;;;;;;;5013904;28;20025;-37
2022/05/03 08:13:59;;;;;;;5.45;2.50;;;;;;;;;;5013879;28;20022;-36
2022/05/03 08:16:25;;;;;;;3.92;2.60;;;;;;;;;;5014143;28;20112;-36
2022/05/03 08:18:50;;;;;;;3.50;2.28;;;;;;;;;;5013866;28;20384;-37
2022/05/03 08:21:16;;;;;;;1.85;1.65;;;;;;;;;;5013714;28;20121;-37
2022/05/03 08:23:42;;;;;;;3.58;2.67;;;;;;;;;;5013993;28;20029;-36
2022/05/03 08:26:07;;;;;;;2.22;2.03;;;;;;;;;;5013544;28;20481;-37
2022/05/03 08:28:33;;;;;;;2.60;2.10;;;;;;;;;;5013857;28;20042;-37
2022/05/03 08:30:59;;;;;;;2.45;2.25;;;;;;;;;;5013832;28;20030;-37
2022/05/03 08:33:25;;;;;;;4.07;1.85;;;;;;;;;;5013542;28;20376;-36
2022/05/03 08:35:51;;;;;;;6.20;2.28;;;;;;;;;;5013714;28;20038;-37
2022/05/03 08:43:45;;;;;;;2.05;1.77;;;;;;;;;;5013459;28;20037;-37
2022/05/03 08:46:11;;;;;;;1.85;1.60;;;;;;;;;;5012100;28;20029;-37
2022/05/03 08:48:40;;;;;;;3.03;1.98;;;;;;;;;;5013146;28;20064;-37
2022/05/03 08:51:06;;;;;;;3.28;1.75;;;;;;;;;;5013188;28;20109;-36
2022/05/03 08:53:33;;;;;;;5.32;2.30;;;;;;;;;;5012596;28;20030;-36
2022/05/03 08:55:58;;;;;;;1.60;1.50;;;;;;;;;;5013082;28;20555;-37
2022/05/03 08:58:24;;;;;;;2.45;1.88;;;;;;;;;;5013108;28;20116;-36
2022/05/03 09:00:49;;;;;;;10.07;1.83;;;;;;;;;;5012905;28;20125;-37
2022/05/03 09:03:15;;;;;;;2.25;1.38;;;;;;;;;;5012983;28;20092;-37
2022/05/03 09:05:40;;;;;;;3.78;1.88;;;;;;;;;;5012821;28;20017;-37
2022/05/03 09:08:09;;;;;;;1.80;1.70;;;;;;;;;;5012901;28;20033;-36
2022/05/03 09:10:37;;;;;;;3.50;2.15;;;;;;;;;;5012776;28;20052;-37
2022/05/03 09:13:12;;;;;;;2.25;1.58;;;;;;;;;;5012992;28;20038;-37
2022/05/03 09:15:37;;;;;;;2.47;1.90;;;;;;;;;;5012682;28;20034;-36
2022/05/03 09:18:03;;;;;;;2.17;1.83;;;;;;;;;;5012700;28;20030;-37
2022/05/03 09:26:19;;;;;;;1.95;1.45;;;;;;;;;;5012725;28;20026;-37
2022/05/03 09:28:45;;;;;;;1.75;1.40;;;;;;;;;;5012577;28;20038;-37
2022/05/03 09:31:11;;;;;;;2.55;1.85;;;;;;;;;;5012468;28;20097;-37
2022/05/03 09:33:38;;;;;;;3.75;1.83;;;;;;;;;;5012208;28;20080;-37
2022/05/03 09:36:08;;;;;;;2.55;1.70;;;;;;;;;;5012715;28;20060;-37
2022/05/03 09:38:43;;;;;;;1.38;1.27;;;;;;;;;;5012274;28;20049;-37
2022/05/03 09:41:14;;;;;;;1.92;1.70;;;;;;;;;;5012339;28;20430;-37
2022/05/03 09:43:59;;;;;;;2.40;1.67;;;;;;;;;;5012225;28;20469;-37
2022/05/03 09:46:24;;;;;;;2.22;1.20;;;;;;;;;;5012280;28;20076;-37
2022/05/03 09:48:53;;;;;;;3.25;1.52;;;;;;;;;;5012074;28;20033;-36
2022/05/03 09:51:21;;;;;;;1.20;1.10;;;;;;;;;;5012444;28;20037;-36
2022/05/03 09:53:56;;;;;;;1.50;1.30;;;;;;;;;;5012166;28;20085;-37
2022/05/03 09:56:26;;;;;;;4.45;1.88;;;;;;;;;;5012035;28;20037;-37
2022/05/03 09:59:07;;;;;;;1.20;1.02;;;;;;;;;;5011912;28;20032;-37
2022/05/03 10:01:36;;;;;;;1.70;1.50;;;;;;;;;;5012193;28;20438;-37
2022/05/03 10:04:06;;;;;;;2.58;1.30;;;;;;;;;;5010161;28;20026;-37
2022/05/03 10:06:32;;;;;;;4.30;1.58;;;;;;;;;;5011912;28;20582;-37
2022/05/03 10:08:59;;;;;;;1.73;1.35;;;;;;;;;;5011888;28;20061;-37
2022/05/03 10:11:26;;;;;;;1.30;1.17;;;;;;;;;;5012127;28;20420;-37
2022/05/03 10:13:53;;;;;;;3.72;1.90;;;;;;;;;;5011737;28;20540;-37
2022/05/03 10:21:50;;;;;;;1.73;1.63;;;;;;;;;;5011367;28;20049;-37
2022/05/03 10:24:16;;;;;;;3.33;1.63;;;;;;;;;;5011744;28;20091;-37
2022/05/03 10:27:01;;;;;;;2.90;1.80;;;;;;;;;;5011411;28;20049;-37
2022/05/03 10:29:40;;;;;;;4.20;1.52;;;;;;;;;;5011727;28;20628;-37
2022/05/03 10:32:06;;;;;;;1.73;1.48;;;;;;;;;;5011682;28;20729;-37
2022/05/03 10:34:46;;;;;;;1.95;1.55;;;;;;;;;;5011407;28;20064;-37
2022/05/03 10:37:19;;;;;;;2.13;1.70;;;;;;;;;;5011637;28;20034;-37
2022/05/03 10:39:48;;;;;;;1.73;1.63;;;;;;;;;;5011390;28;20057;-37
2022/05/03 10:42:14;;;;;;;3.13;1.30;;;;;;;;;;5011554;28;20029;-38
2022/05/03 10:44:56;;;;;;;5.78;2.17;;;;;;;;;;5011442;28;20112;-37
2022/05/03 10:47:38;;;;;;;2.00;1.70;;;;;;;;;;5011576;28;20073;-37
2022/05/03 10:50:19;;;;;;;1.55;1.35;;;;;;;;;;5011499;28;20576;-37
2022/05/03 10:52:45;;;;;;;2.28;1.67;;;;;;;;;;5011445;28;20401;-37
2022/05/03 10:55:11;;;;;;;3.50;1.73;;;;;;;;;;5011425;28;20030;-37
2022/05/03 10:57:55;;;;;;;2.35;1.60;;;;;;;;;;5011325;28;20110;-37
2022/05/03 11:00:39;;;;;;;1.70;1.30;;;;;;;;;;5011624;28;20056;-37
2022/05/03 11:03:21;;;;;;;2.85;2.03;;;;;;;;;;5011224;28;20053;-37
2022/05/03 11:06:05;;;;;;;12.95;2.05;;;;;;;;;;5011203;28;20038;-37
2022/05/03 11:08:30;;;;;;;1.48;1.38;;;;;;;;;;5011383;28;20026;-37
2022/05/03 11:10:56;;;;;;;7.25;1.80;;;;;;;;;;5009962;28;20071;-37
2022/05/03 11:13:41;;;;;;;3.55;1.75;;;;;;;;;;5011344;28;20401;-36
2022/05/03 11:16:22;;;;;;;1.85;1.70;;;;;;;;;;5011549;28;20038;-37
2022/05/03 11:18:48;;;;;;;1.48;1.38;;;;;;;;;;5015155;28;20152;-37
2022/05/03 11:21:14;;;;;;;2.33;1.80;;;;;;;;;;5014842;28;20018;-37
2022/05/03 11:23:53;;;;;;;2.13;1.35;;;;;;;;;;5014890;28;20029;-37
2022/05/03 11:26:20;;;;;;;5.07;1.88;;;;;;;;;;5014667;28;20074;-37
2022/05/03 11:28:47;;;;;;;2.13;1.50;;;;;;;;;;5014775;28;20026;-37
2022/05/03 11:31:14;;;;;;;4.35;2.08;;;;;;;;;;5029857;28;20045;-37
2022/05/03 11:34:09;;;;;;;2.70;1.10;;;;;;;;;;5014529;28;20018;-37
2022/05/03 11:36:35;;;;;;;1.80;1.58;;;;;;;;;;5009765;28;20057;-37
2022/05/03 11:39:03;;;;;;;1.38;1.20;;;;;;;;;;5014664;28;20371;-37
2022/05/03 11:41:29;;;;;;;3.22;1.50;;;;;;;;;;5014510;28;20041;-37
2022/05/03 11:43:55;;;;;;;1.85;1.38;;;;;;;;;;5014787;28;20026;-38
2022/05/03 11:46:21;;;;;;;5.60;1.50;;;;;;;;;;5014448;28;20026;-37
2022/05/03 11:48:52;;;;;;;1.30;1.20;;;;;;;;;;5014399;28;20551;-37
2022/05/03 11:57:03;;;;;;;2.45;1.45;;;;;;;;;;5014545;28;20076;-37
2022/05/03 11:59:29;;;;;;;2.58;1.83;;;;;;;;;;5014265;28;20072;-37
2022/05/03 12:02:12;;;;;;;2.90;1.42;;;;;;;;;;5122937;23;20065;-35
2022/05/03 12:04:38;;;;;;;6.57;2.17;;;;;;;;;;5014308;28;20042;-35
2022/05/03 12:07:03;;;;;;;3.15;1.85;;;;;;;;;;5014230;28;20030;-35
2022/05/03 12:09:35;;;;;;;2.70;1.65;;;;;;;;;;5012799;28;20052;-35
2022/05/03 12:14:44;;;;;;;1.40;1.30;;;;;;;;;;5014058;28;20042;-35
2022/05/03 12:17:11;;;;;;;1.58;1.23;;;;;;;;;;5013871;28;20014;-35
2022/05/03 12:19:37;;;;;;;2.08;1.55;;;;;;;;;;5014035;28;20116;-35
2022/05/03 12:22:12;;;;;;;5.90;1.60;;;;;;;;;;5013773;28;20025;-35
2022/05/03 12:24:38;;;;;;;2.63;2.15;;;;;;;;;;5012686;28;20069;-37
2022/05/03 12:27:11;;;;;;;2.95;1.50;;;;;;;;;;5013110;28;20026;-35
2022/05/03 12:29:46;;;;;;;1.60;1.40;;;;;;;;;;5013747;28;20480;-35
2022/05/03 12:32:15;;;;;;;2.10;1.48;;;;;;;;;;5013670;28;20030;-35
2022/05/03 12:34:43;;;;;;;4.45;1.98;;;;;;;;;;5013562;28;20088;-35
2022/05/03 12:37:12;;;;;;;1.83;1.30;;;;;;;;;;5013492;28;20030;-36
2022/05/03 12:39:38;;;;;;;2.05;1.40;;;;;;;;;;5013832;28;20021;-35
2022/05/03 12:42:13;;;;;;;2.05;1.60;;;;;;;;;;5013516;28;20045;-35
2022/05/03 12:44:49;;;;;;;1.98;1.58;;;;;;;;;;5013662;28;20109;-35
2022/05/03 12:47:14;;;;;;;2.03;1.38;;;;;;;;;;5013335;28;20560;-35
2022/05/03 12:49:39;;;;;;;1.52;1.42;;;;;;;;;;5013433;28;20109;-35
2022/05/03 12:52:05;;;;;;;1.83;1.50;;;;;;;;;;5013108;28;20110;-35
2022/05/03 12:54:37;;;;;;;2.40;1.58;;;;;;;;;;5013260;28;20080;-35
2022/05/03 12:59:49;;;;;;;1.60;1.30;;;;;;;;;;5013187;28;20036;-34
2022/05/03 13:02:14;;;;;;;2.30;1.42;;;;;;;;;;5015261;28;20068;-35
2022/05/03 13:04:40;;;;;;;2.55;1.65;;;;;;;;;;5052772;28;20033;-35
2022/05/03 13:07:08;;;;;;;1.40;1.30;;;;;;;;;;5052598;28;20040;-35
2022/05/03 13:09:34;;;;;;;1.85;1.70;;;;;;;;;;5052674;28;20387;-35
2022/05/03 13:12:01;;;;;;;2.05;1.23;;;;;;;;;;5052408;28;20387;-35
2022/05/03 13:14:28;;;;;;;1.20;1.10;;;;;;;;;;5052411;28;20372;-35
2022/05/03 13:16:54;;;;;;;1.92;1.48;;;;;;;;;;5052520;28;20044;-35
2022/05/03 13:19:19;;;;;;;1.42;1.27;;;;;;;;;;5052326;28;20075;-35
2022/05/03 13:21:45;;;;;;;3.92;1.50;;;;;;;;;;5052457;28;20036;-35
2022/05/03 13:24:12;;;;;;;1.92;1.67;;;;;;;;;;5052251;28;20017;-35
2022/05/03 13:26:38;;;;;;;2.90;1.20;;;;;;;;;;5052591;28;20029;-35
2022/05/03 13:29:16;;;;;;;2.00;1.67;;;;;;;;;;5052243;28;20025;-35
2022/05/03 13:31:43;;;;;;;3.13;1.70;;;;;;;;;;5052276;28;20104;-35
2022/05/03 13:34:09;;;;;;;1.83;1.40;;;;;;;;;;5050698;28;20060;-35
2022/05/03 13:42:03;;;;;;;1.70;1.50;;;;;;;;;;5052067;28;20029;-35
2022/05/03 13:44:28;;;;;;;3.60;1.45;;;;;;;;;;5051915;28;20062;-35
2022/05/03 13:46:54;;;;;;;6.40;1.75;;;;;;;;;;5052190;28;20513;-35
2022/05/03 13:49:20;;;;;;;1.60;1.10;;;;;;;;;;5051863;28;20466;-35
2022/05/03 13:51:46;;;;;;;3.97;1.50;;;;;;;;;;5051922;28;20022;-35
2022/05/03 13:54:11;;;;;;;2.92;1.67;;;;;;;;;;5051961;28;20025;-35
2022/05/03 13:56:37;;;;;;;1.70;1.60;;;;;;;;;;5050502;28;20378;-35
2022/05/03 13:59:03;;;;;;;4.43;1.35;;;;;;;;;;5051787;28;20374;-35
2022/05/03 14:01:29;;;;;;;1.88;1.70;;;;;;;;;;5051718;28;20041;-35
2022/05/03 14:03:58;;;;;;;4.80;2.88;;;;;;;;;;5051433;28;20546;-35
2022/05/03 14:06:25;;;;;;;2.30;1.70;;;;;;;;;;5051909;28;20482;-36
2022/05/03 14:08:50;;;;;;;3.78;1.88;;;;;;;;;;5051635;28;20101;-36
2022/05/03 14:11:15;;;;;;;1.50;1.33;;;;;;;;;;5051782;28;20153;-35
2022/05/03 14:13:41;;;;;;;2.07;1.53;;;;;;;;;;5051488;28;20013;-35
2022/05/03 14:16:06;;;;;;;1.30;1.20;;;;;;;;;;5051421;28;20071;-37
2022/05/03 14:18:32;;;;;;;2.30;1.52;;;;;;;;;;5051762;28;20013;-35
2022/05/03 14:20:57;;;;;;;3.05;1.73;;;;;;;;;;5051815;28;20032;-35
2022/05/03 14:23:23;;;;;;;4.90;1.50;;;;;;;;;;5033447;28;20455;-35
2022/05/03 14:25:48;;;;;;;1.20;1.10;;;;;;;;;;5051347;28;20036;-35
2022/05/03 14:28:14;;;;;;;2.25;1.63;;;;;;;;;;5051349;28;20108;-35
2022/05/03 14:30:39;;;;;;;1.77;1.10;;;;;;;;;;5051339;28;20025;-35
2022/05/03 14:33:06;;;;;;;3.00;1.52;;;;;;;;;;5051332;28;20025;-35
2022/05/03 14:35:33;;;;;;;35.08;3.00;;;;;;;;;;5051181;28;20045;-35
2022/05/03 14:37:58;;;;;;;5.60;1.30;;;;;;;;;;5051298;28;20021;-35
2022/05/03 14:40:24;;;;;;;83.22;5.88;;;;;;;;;;5051164;28;20060;-35
2022/05/03 14:42:50;;;;;;;6.75;1.58;;;;;;;;;;5051220;28;20013;-37
2022/05/03 14:45:18;;;;;;;1.73;1.45;;;;;;;;;;5051136;28;20040;-35
2022/05/03 14:47:44;;;;;;;1.65;1.35;;;;;;;;;;5051232;28;20017;-35
2022/05/03 14:50:11;;;;;;;4.13;1.80;;;;;;;;;;5051382;28;20029;-35
2022/05/03 14:52:43;;;;;;;2.45;1.80;;;;;;;;;;5055157;28;20032;-37
2022/05/03 14:55:08;;;;;;;1.95;1.60;;;;;;;;;;5053783;28;20076;-35
2022/05/03 15:03:03;;;;;;;1.42;1.30;;;;;;;;;;5054773;28;20041;-35
2022/05/03 15:05:31;;;;;;;9.52;1.63;;;;;;;;;;5055130;28;20061;-35
2022/05/03 15:07:58;;;;;;;2.08;1.58;;;;;;;;;;5054880;28;20468;-35
2022/05/03 15:10:24;;;;;;;3.90;1.73;;;;;;;;;;5054852;28;20021;-35
2022/05/03 15:12:50;;;;;;;1.35;1.23;;;;;;;;;;5036980;28;20032;-35
2022/05/03 15:15:16;;;;;;;2.47;1.60;;;;;;;;;;5054544;28;20475;-35
2022/05/03 15:17:49;;;;;;;5.55;1.92;;;;;;;;;;5036864;28;20033;-35
2022/05/03 15:20:15;;;;;;;1.95;1.30;;;;;;;;;;5054566;28;20376;-35
2022/05/03 15:25:25;;;;;;;7.00;1.60;;;;;;;;;;5054794;28;20052;-35
2022/05/03 15:27:51;;;;;;;2.00;1.80;;;;;;;;;;5054514;28;20044;-35
2022/05/03 15:30:17;;;;;;;1.35;1.20;;;;;;;;;;5054671;28;20463;-35
2022/05/03 15:32:42;;;;;;;2.33;1.48;;;;;;;;;;5054467;28;20035;-36
2022/05/03 15:35:08;;;;;;;1.83;1.23;;;;;;;;;;5054270;28;20407;-35
2022/05/03 15:37:34;;;;;;;1.33;1.17;;;;;;;;;;5054350;28;20020;-35
2022/05/03 15:40:03;;;;;;;1.80;1.50;;;;;;;;;;5054503;28;20025;-35
2022/05/03 15:42:33;;;;;;;2.70;1.50;;;;;;;;;;5054169;28;20100;-35